createdAt,value
2022-10-02T00:00:18.185Z,100429
2022-10-02T00:06:07.693Z,100427
2022-10-02T00:11:57.914Z,100432
2022-10-02T00:17:48.516Z,100434
2022-10-02T00:23:37.868Z,100456
2022-10-02T00:29:28.348Z,100442
2022-10-02T00:35:19.848Z,100434
2022-10-02T00:41:12.988Z,100424
2022-10-02T00:47:06.295Z,100436
2022-10-02T00:52:55.549Z,100445
2022-10-02T00:58:45.707Z,100452
2022-10-02T01:04:36.084Z,100457
2022-10-02T01:10:27.466Z,100449
2022-10-02T01:16:17.336Z,100451
2022-10-02T01:22:06.871Z,100456
2022-10-02T01:27:57.346Z,100462
2022-10-02T01:33:48.314Z,100456
2022-10-02T01:39:37.804Z,100468
2022-10-02T01:45:28.621Z,100470
2022-10-02T01:51:18.027Z,100466
2022-10-02T01:57:14.366Z,100477
2022-10-02T02:03:04.484Z,100479
2022-10-02T02:08:58.494Z,100480
2022-10-02T02:14:52.328Z,100469
2022-10-02T02:20:41.784Z,100468
2022-10-02T02:26:31.620Z,100477
2022-10-02T02:32:22.136Z,100468
2022-10-02T02:38:11.906Z,100452
2022-10-02T02:44:01.279Z,100454
2022-10-02T02:49:50.346Z,100455
2022-10-02T02:55:47.302Z,100451
2022-10-02T03:01:36.894Z,100457
2022-10-02T03:07:26.559Z,100458
2022-10-02T03:13:16.783Z,100455
2022-10-02T03:19:06.631Z,100458
2022-10-02T03:24:56.724Z,100461
2022-10-02T03:30:46.048Z,100456
2022-10-02T03:36:36.320Z,100455
2022-10-02T03:42:26.866Z,100464
2022-10-02T03:48:17.357Z,100461
2022-10-02T03:54:06.175Z,100459
2022-10-02T03:59:55.884Z,100456
2022-10-02T04:05:44.997Z,100466
2022-10-02T04:11:36.308Z,100463
2022-10-02T04:17:26.084Z,100461
2022-10-02T04:23:18.657Z,100454
2022-10-02T04:29:09.672Z,100454
2022-10-02T04:35:01.461Z,100457
2022-10-02T08:50:37.839Z,100593
2022-10-02T09:04:07.058Z,100582
2022-10-02T09:30:58.391Z,100594
2022-10-02T10:43:14.353Z,100640
2022-10-02T10:49:04.950Z,100653
2022-10-02T10:54:55.371Z,100647
2022-10-02T11:00:46.315Z,100648
2022-10-02T11:06:40.897Z,100655
2022-10-02T11:12:35.063Z,100662
2022-10-02T11:18:26.105Z,100671
2022-10-02T11:24:18.449Z,100681
2022-10-02T11:30:08.841Z,100680
2022-10-02T11:35:58.705Z,100693
2022-10-02T11:41:49.820Z,100704
2022-10-02T11:47:40.759Z,100698
2022-10-02T11:53:31.351Z,100691
2022-10-02T11:59:21.600Z,100699
2022-10-02T12:05:10.622Z,100698
2022-10-02T12:11:00.443Z,100691
2022-10-02T12:16:50.977Z,100693
2022-10-02T12:22:40.738Z,100704
2022-10-02T12:28:30.810Z,100698
2022-10-02T12:34:20.874Z,100692
2022-10-02T12:40:10.979Z,100704
2022-10-02T12:46:01.315Z,100696
2022-10-02T12:51:52.332Z,100692
2022-10-02T12:57:43.569Z,100693
2022-10-02T13:03:35.506Z,100696
2022-10-02T13:09:37.263Z,100689
2022-10-02T13:15:27.974Z,100683
2022-10-02T13:21:19.897Z,100678
2022-10-02T13:27:10.738Z,100683
2022-10-02T13:33:01.399Z,100672
2022-10-02T13:38:52.611Z,100694
2022-10-02T13:44:43.211Z,100685
2022-10-02T13:50:34.419Z,100693
2022-10-02T13:56:26.736Z,100694
2022-10-02T14:02:21.157Z,100693
2022-10-02T14:08:11.208Z,100705
2022-10-02T14:14:07.097Z,100700
2022-10-02T14:19:57.622Z,100718
2022-10-02T14:25:48.210Z,100723
2022-10-02T14:31:37.972Z,100737
2022-10-02T14:37:31.473Z,100737
2022-10-02T14:43:22.480Z,100734
2022-10-02T14:49:13.046Z,100737
2022-10-02T14:55:04.432Z,100738
2022-10-02T15:00:55.016Z,100738
2022-10-02T15:06:46.002Z,100743
2022-10-02T15:12:36.508Z,100752
2022-10-02T15:18:27.243Z,100737
2022-10-02T15:24:18.234Z,100742
2022-10-02T15:30:08.934Z,100743
2022-10-02T15:36:00.169Z,100753
2022-10-02T15:41:51.507Z,100758
2022-10-02T15:47:42.321Z,100773
2022-10-02T15:53:34.784Z,100767
2022-10-02T15:59:25.388Z,100771
2022-10-02T16:05:16.538Z,100770
2022-10-02T16:11:08.377Z,100781
2022-10-02T16:17:00.191Z,100785
2022-10-02T16:22:51.594Z,100783
2022-10-02T16:28:43.046Z,100794
2022-10-02T16:34:34.605Z,100798
2022-10-02T16:40:30.246Z,100809
2022-10-02T16:46:24.730Z,100817
2022-10-02T16:52:15.116Z,100824
2022-10-02T16:58:05.648Z,100836
2022-10-02T17:03:56.398Z,100851
2022-10-02T17:09:47.247Z,100859
2022-10-02T17:15:37.236Z,100867
2022-10-02T17:21:28.053Z,100888
2022-10-02T17:27:19.294Z,100898
2022-10-02T17:33:11.197Z,100914
2022-10-02T17:39:01.750Z,100914
2022-10-02T17:44:52.213Z,100929
2022-10-02T17:50:42.950Z,100948
2022-10-02T17:56:34.560Z,100960
2022-10-02T18:02:25.124Z,100973
2022-10-02T18:08:17.985Z,100970
2022-10-02T18:14:08.142Z,100986
2022-10-02T18:19:59.213Z,100991
2022-10-02T18:25:49.703Z,100996
2022-10-02T18:31:58.903Z,101004
2022-10-02T18:37:49.503Z,101010
2022-10-02T18:43:40.825Z,101011
2022-10-02T18:49:35.131Z,101028
2022-10-02T18:55:25.176Z,101036
2022-10-02T19:01:16.718Z,101044
2022-10-02T19:07:08.105Z,101047
2022-10-02T19:12:58.505Z,101061
2022-10-02T19:18:49.002Z,101075
2022-10-02T19:24:38.252Z,101078
2022-10-02T19:30:29.939Z,101083
2022-10-02T19:36:19.983Z,101088
2022-10-02T19:42:11.732Z,101096
2022-10-02T19:48:03.873Z,101112
2022-10-02T19:53:54.837Z,101120
2022-10-02T19:59:47.247Z,101126
2022-10-02T20:05:37.633Z,101134
2022-10-02T20:11:29.371Z,101136
2022-10-02T20:17:21.849Z,101144
2022-10-02T20:23:13.840Z,101157
2022-10-02T20:29:05.392Z,101165
2022-10-02T20:34:57.558Z,101163
2022-10-02T20:40:48.750Z,101169
2022-10-02T20:46:42.271Z,101172
2022-10-02T20:52:42.952Z,101180
2022-10-02T20:58:39.663Z,101194
2022-10-02T21:04:34.173Z,101196
2022-10-02T21:10:25.197Z,101209
2022-10-02T21:16:23.285Z,101216
2022-10-02T21:22:25.521Z,101218
2022-10-02T21:28:30.468Z,101235
2022-10-02T21:34:31.656Z,101240
2022-10-02T21:40:38.675Z,101252
2022-10-02T21:46:42.038Z,101256
2022-10-02T21:52:35.372Z,101259
2022-10-02T21:58:47.715Z,101272
2022-10-02T22:04:39.441Z,101271
2022-10-02T22:10:31.442Z,101271
2022-10-02T22:16:23.694Z,101281
2022-10-02T22:22:17.756Z,101297
2022-10-02T22:28:12.580Z,101307
2022-10-02T22:34:08.478Z,101317
2022-10-02T22:39:59.905Z,101315
2022-10-02T22:45:54.056Z,101318
2022-10-02T22:51:46.999Z,101320
2022-10-02T22:57:38.328Z,101328
2022-10-02T23:03:29.332Z,101340
2022-10-02T23:09:24.671Z,101342
2022-10-02T23:15:15.397Z,101349
2022-10-02T23:21:11.670Z,101354
2022-10-02T23:27:04.726Z,101349
2022-10-02T23:32:55.164Z,101357
2022-10-02T23:38:44.565Z,101355
2022-10-02T23:44:36.458Z,101355
2022-10-02T23:50:27.496Z,101352
2022-10-02T23:56:17.626Z,101354
